Time;durP1;ratioP1;P1;durP2;ratioP2;P2;SDS_P1;SDS_P2;PMS_P1;PMS_P2;Temp;Humidity;BMP_temperature;BMP_pressure;BME280_temperature;BME280_humidity;BME280_pressure;Samples;Min_cycle;Max_cycle;Signal;HPM_P1;HPM_P2
2022/07/14 00:01:48;;;;;;;6.05;3.47;;;15.00;99.90;;;;;;4972475;28;20046;-72
2022/07/14 00:04:14;;;;;;;11.85;4.47;;;15.00;99.90;;;;;;4986681;28;20100;-72
2022/07/14 00:06:40;;;;;;;11.32;4.88;;;15.00;99.90;;;;;;4988357;28;20554;-73
2022/07/14 00:09:05;;;;;;;9.00;4.10;;;14.90;99.90;;;;;;4989330;28;20081;-73
2022/07/14 00:11:31;;;;;;;11.35;4.53;;;14.90;99.90;;;;;;4989359;28;20061;-72
2022/07/14 00:13:58;;;;;;;17.80;5.53;;;14.90;99.90;;;;;;4971718;28;20046;-72
2022/07/14 00:16:25;;;;;;;17.27;5.03;;;14.80;99.90;;;;;;4988375;28;20669;-72
2022/07/14 00:18:51;;;;;;;9.05;4.35;;;14.80;99.90;;;;;;4976808;28;20523;-71
2022/07/14 00:21:17;;;;;;;9.60;4.13;;;14.80;99.90;;;;;;4989159;28;20043;-72
2022/07/14 00:23:45;;;;;;;8.70;4.82;;;14.80;99.90;;;;;;4986486;28;20410;-72
2022/07/14 00:26:11;;;;;;;9.23;3.72;;;14.70;99.90;;;;;;4988978;28;20050;-72
2022/07/14 00:28:37;;;;;;;10.93;3.92;;;14.70;99.90;;;;;;4971864;28;20046;-72
2022/07/14 00:31:10;;;;;;;11.70;4.38;;;14.70;99.90;;;;;;4989238;28;20618;-72
2022/07/14 00:33:38;;;;;;;11.05;4.38;;;14.60;99.90;;;;;;4981599;28;20043;-72
2022/07/14 00:36:04;;;;;;;13.85;5.32;;;14.60;99.90;;;;;;4988811;28;20046;-72
2022/07/14 00:38:30;;;;;;;13.20;4.68;;;14.60;99.90;;;;;;4984269;28;20486;-72
2022/07/14 00:40:55;;;;;;;12.15;4.88;;;14.50;99.90;;;;;;4972290;28;20483;-72
2022/07/14 00:43:21;;;;;;;12.15;4.47;;;14.50;99.90;;;;;;4988463;28;20407;-72
2022/07/14 00:45:48;;;;;;;14.45;5.05;;;14.50;99.90;;;;;;4989002;28;20766;-72
2022/07/14 00:48:13;;;;;;;17.58;5.95;;;14.40;99.90;;;;;;4971254;28;20050;-72
2022/07/14 00:50:41;;;;;;;16.80;5.20;;;14.40;99.90;;;;;;4988847;28;20041;-72
2022/07/14 00:53:08;;;;;;;9.43;5.25;;;14.30;99.90;;;;;;4987520;28;20046;-72
2022/07/14 00:55:35;;;;;;;12.68;4.85;;;14.40;99.90;;;;;;4970684;28;20050;-72
2022/07/14 00:58:01;;;;;;;7.07;4.20;;;14.30;99.90;;;;;;4970939;28;20831;-72
2022/07/14 01:00:26;;;;;;;7.53;3.78;;;14.30;99.90;;;;;;4984174;28;20046;-72
2022/07/14 01:02:52;;;;;;;12.00;4.68;;;14.30;99.90;;;;;;4987699;28;20454;-71
2022/07/14 01:05:18;;;;;;;7.63;4.32;;;14.20;99.90;;;;;;4989005;28;20101;-72
2022/07/14 01:07:45;;;;;;;12.88;5.30;;;14.20;99.90;;;;;;4986629;28;20798;-72
2022/07/14 01:10:11;;;;;;;10.25;4.75;;;14.10;99.90;;;;;;4987836;28;20129;-71
2022/07/14 01:12:38;;;;;;;11.95;5.22;;;14.10;99.90;;;;;;4988004;28;20126;-71
2022/07/14 01:15:04;;;;;;;15.57;4.43;;;14.10;99.90;;;;;;4986296;28;20045;-71
2022/07/14 01:17:31;;;;;;;17.80;5.38;;;14.00;99.90;;;;;;4986787;28;20525;-71
2022/07/14 01:19:57;;;;;;;10.13;5.25;;;14.00;99.90;;;;;;4988328;28;20061;-71
2022/07/14 01:22:22;;;;;;;11.75;4.95;;;14.00;99.90;;;;;;4986173;28;20053;-71
2022/07/14 01:24:48;;;;;;;10.48;4.30;;;13.90;99.90;;;;;;4983929;28;20118;-72
2022/07/14 01:27:14;;;;;;;19.13;5.22;;;13.90;99.90;;;;;;4985885;28;20129;-72
2022/07/14 01:29:39;;;;;;;9.27;4.85;;;13.90;99.90;;;;;;4982008;28;20046;-72
2022/07/14 01:32:05;;;;;;;18.42;5.47;;;13.80;99.90;;;;;;4988052;28;20038;-72
2022/07/14 01:34:30;;;;;;;12.75;4.57;;;13.70;99.90;;;;;;4987674;28;20121;-72
2022/07/14 01:36:57;;;;;;;10.07;4.70;;;13.70;99.90;;;;;;4988488;28;20054;-72
2022/07/14 01:39:22;;;;;;;7.25;4.18;;;13.70;99.90;;;;;;4987624;28;20588;-72
2022/07/14 01:41:49;;;;;;;11.52;4.90;;;13.70;99.90;;;;;;4986309;28;20058;-71
2022/07/14 01:44:15;;;;;;;13.40;5.95;;;13.70;99.90;;;;;;4988029;28;20051;-72
2022/07/14 01:46:41;;;;;;;11.35;4.70;;;13.70;99.90;;;;;;4987604;28;20058;-71
2022/07/14 01:49:07;;;;;;;11.48;4.05;;;13.70;99.90;;;;;;4972733;28;20464;-72
2022/07/14 01:51:34;;;;;;;22.70;6.55;;;13.60;99.90;;;;;;4986147;28;20046;-73
2022/07/14 01:53:59;;;;;;;11.30;4.72;;;13.60;99.90;;;;;;4970166;28;20048;-72
2022/07/14 01:56:25;;;;;;;10.73;4.47;;;13.60;99.90;;;;;;4970700;28;20057;-72
2022/07/14 01:58:50;;;;;;;14.35;4.85;;;13.50;99.90;;;;;;4971156;28;20074;-72
2022/07/14 02:04:02;;;;;;;14.20;4.90;;;13.50;99.90;;;;;;4977812;28;20400;-72
2022/07/14 02:06:29;;;;;;;8.48;5.00;;;13.50;99.90;;;;;;4972578;28;20058;-72
2022/07/14 02:08:56;;;;;;;13.73;5.28;;;13.50;99.90;;;;;;4987400;28;20042;-72
2022/07/14 02:14:06;;;;;;;13.10;5.07;;;13.40;99.90;;;;;;4956084;28;20514;-72
2022/07/14 02:16:34;;;;;;;10.40;5.15;;;13.40;99.90;;;;;;4979278;28;20034;-72
2022/07/14 02:19:00;;;;;;;10.82;5.72;;;13.30;99.90;;;;;;4975493;28;20133;-72
2022/07/14 02:21:27;;;;;;;15.55;6.15;;;13.30;99.90;;;;;;4973743;28;20120;-72
2022/07/14 02:23:53;;;;;;;9.52;5.00;;;13.30;99.90;;;;;;4985838;28;20058;-72
2022/07/14 02:26:18;;;;;;;15.75;4.30;;;13.30;99.90;;;;;;4979733;28;20042;-72
2022/07/14 02:28:44;;;;;;;9.65;4.82;;;13.30;99.90;;;;;;4988495;28;20042;-72
2022/07/14 02:31:10;;;;;;;10.02;5.40;;;13.20;99.90;;;;;;4980130;28;20070;-71
2022/07/14 02:33:36;;;;;;;15.80;5.78;;;13.20;99.90;;;;;;4982397;28;20039;-72
2022/07/14 02:36:02;;;;;;;13.38;4.68;;;13.20;99.90;;;;;;4969774;28;20061;-71
2022/07/14 02:38:28;;;;;;;12.10;6.03;;;13.20;99.90;;;;;;4986622;28;20038;-71
2022/07/14 02:40:54;;;;;;;8.65;4.90;;;13.20;99.90;;;;;;4992498;28;20089;-71
2022/07/14 02:43:19;;;;;;;13.30;5.95;;;13.10;99.90;;;;;;4992306;28;20474;-71
2022/07/14 02:45:45;;;;;;;12.57;5.32;;;13.10;99.90;;;;;;4990176;28;20478;-71
2022/07/14 02:48:11;;;;;;;12.30;5.57;;;13.00;99.90;;;;;;4990287;28;20149;-72
2022/07/14 02:50:36;;;;;;;11.77;5.72;;;13.00;99.90;;;;;;4972147;28;20432;-72
2022/07/14 02:53:03;;;;;;;13.30;5.57;;;13.00;99.90;;;;;;4990490;28;20058;-72
2022/07/14 02:55:29;;;;;;;12.25;5.53;;;12.90;99.90;;;;;;4989492;28;20042;-71
2022/07/14 02:57:55;;;;;;;10.52;6.60;;;12.90;99.90;;;;;;4973896;28;20053;-72
2022/07/14 03:00:21;;;;;;;13.35;6.03;;;12.80;99.90;;;;;;4989452;28;20042;-73
2022/07/14 03:02:46;;;;;;;16.73;6.78;;;12.80;99.90;;;;;;4987067;28;20046;-72
2022/07/14 03:05:12;;;;;;;10.35;5.63;;;12.80;99.90;;;;;;4989613;28;20063;-72
2022/07/14 03:07:38;;;;;;;18.00;5.90;;;12.80;99.90;;;;;;4989577;28;20500;-72
2022/07/14 03:10:04;;;;;;;13.10;5.70;;;12.80;99.90;;;;;;4990614;28;20464;-71
2022/07/14 03:12:30;;;;;;;12.55;5.88;;;12.70;99.90;;;;;;4988286;28;20129;-72
2022/07/14 03:14:55;;;;;;;12.63;6.72;;;12.70;99.90;;;;;;4992083;28;20129;-72
2022/07/14 03:17:21;;;;;;;9.38;5.47;;;12.60;99.90;;;;;;4987689;28;20043;-72
2022/07/14 03:19:47;;;;;;;18.85;6.30;;;12.60;99.90;;;;;;4952499;28;20526;-70
2022/07/14 03:22:12;;;;;;;15.07;6.32;;;12.60;99.90;;;;;;4981259;28;20038;-71
2022/07/14 03:24:38;;;;;;;16.00;6.88;;;12.50;99.90;;;;;;4971820;28;20137;-71
2022/07/14 03:27:04;;;;;;;16.58;7.13;;;12.50;99.90;;;;;;4988566;28;20042;-71
2022/07/14 03:29:29;;;;;;;12.95;6.35;;;12.50;99.90;;;;;;4989457;28;20050;-71
2022/07/14 03:31:55;;;;;;;13.27;6.45;;;12.40;99.90;;;;;;4972048;28;20447;-71
2022/07/14 03:34:21;;;;;;;11.90;7.68;;;12.40;99.90;;;;;;4972616;28;20047;-72
2022/07/14 03:36:46;;;;;;;10.00;5.85;;;12.40;99.90;;;;;;4990057;28;20057;-71
2022/07/14 03:39:13;;;;;;;16.38;6.88;;;12.40;99.90;;;;;;4989656;28;20050;-71
2022/07/14 03:41:39;;;;;;;12.70;7.28;;;12.30;99.90;;;;;;4989447;28;20050;-71
2022/07/14 03:44:05;;;;;;;11.93;6.43;;;12.30;99.90;;;;;;4978540;28;20047;-72
2022/07/14 03:46:31;;;;;;;17.35;6.88;;;12.30;99.90;;;;;;4971118;28;20065;-72
2022/07/14 03:48:57;;;;;;;12.40;7.05;;;12.30;99.90;;;;;;4972643;28;20388;-73
2022/07/14 03:51:23;;;;;;;9.07;5.53;;;12.20;99.90;;;;;;4989473;28;20053;-72
2022/07/14 03:53:49;;;;;;;11.15;7.10;;;12.20;99.90;;;;;;4990002;28;20046;-72
2022/07/14 03:56:15;;;;;;;15.65;6.50;;;12.20;99.90;;;;;;4989871;28;20134;-72
2022/07/14 03:58:41;;;;;;;11.85;6.72;;;12.20;99.90;;;;;;4989947;28;20333;-72
2022/07/14 04:01:06;;;;;;;9.77;6.82;;;12.20;99.90;;;;;;4972274;28;20553;-73
2022/07/14 04:03:32;;;;;;;16.20;6.47;;;12.20;99.90;;;;;;4989448;28;20049;-73
2022/07/14 04:05:58;;;;;;;10.93;7.18;;;12.20;99.90;;;;;;4977530;28;20054;-73
2022/07/14 04:08:24;;;;;;;12.70;6.30;;;12.20;99.90;;;;;;4988207;28;20409;-74
2022/07/14 04:10:50;;;;;;;17.70;6.45;;;12.20;99.90;;;;;;4989607;28;20153;-73
2022/07/14 04:13:15;;;;;;;7.50;6.07;;;12.20;99.90;;;;;;4971560;28;20121;-72
2022/07/14 04:15:42;;;;;;;10.52;6.40;;;12.30;99.90;;;;;;4989724;28;20043;-72
2022/07/14 04:18:08;;;;;;;9.23;6.22;;;12.30;99.90;;;;;;4972404;28;20108;-73
2022/07/14 04:20:34;;;;;;;10.18;5.85;;;12.30;99.90;;;;;;4989753;28;20515;-72
2022/07/14 04:23:00;;;;;;;9.18;6.40;;;12.30;99.90;;;;;;4980972;28;20042;-72
2022/07/14 04:25:26;;;;;;;11.57;6.88;;;12.40;99.90;;;;;;4986167;28;20061;-72
2022/07/14 04:27:52;;;;;;;8.73;5.15;;;12.60;99.90;;;;;;4972153;28;20043;-73
2022/07/14 04:30:18;;;;;;;8.95;4.85;;;12.90;99.90;;;;;;4988497;28;20042;-73
2022/07/14 04:32:44;;;;;;;8.23;5.63;;;13.00;99.90;;;;;;4966400;28;20034;-73
2022/07/14 04:35:10;;;;;;;8.65;5.25;;;13.00;99.90;;;;;;4962656;28;20138;-72
2022/07/14 04:37:36;;;;;;;8.88;5.35;;;13.00;99.90;;;;;;4987920;28;20496;-72
2022/07/14 04:40:02;;;;;;;8.70;5.50;;;12.90;99.90;;;;;;4965867;28;20038;-72
2022/07/14 04:42:28;;;;;;;11.32;4.90;;;12.80;99.90;;;;;;4959060;28;20754;-72
2022/07/14 04:44:54;;;;;;;14.05;5.95;;;12.80;99.90;;;;;;4971697;28;20042;-72
2022/07/14 04:47:19;;;;;;;9.68;5.47;;;12.80;99.90;;;;;;4988457;28;20407;-72
2022/07/14 04:52:29;;;;;;;12.48;6.63;;;12.80;99.90;;;;;;4987828;28;20085;-72
2022/07/14 04:54:56;;;;;;;9.32;5.18;;;12.80;99.90;;;;;;4971131;28;20500;-72
2022/07/14 04:57:22;;;;;;;14.40;5.63;;;12.80;99.90;;;;;;4964484;28;20054;-71
2022/07/14 04:59:48;;;;;;;14.15;6.65;;;12.80;99.90;;;;;;4984525;28;20297;-72
2022/07/14 05:02:14;;;;;;;13.38;6.93;;;12.80;99.90;;;;;;4971269;28;20088;-72
2022/07/14 05:04:40;;;;;;;11.32;6.85;;;12.90;99.90;;;;;;4971892;28;20067;-72
2022/07/14 05:07:06;;;;;;;17.98;6.85;;;12.90;99.90;;;;;;4979965;28;20058;-72
2022/07/14 05:09:35;;;;;;;13.50;7.38;;;12.90;99.90;;;;;;4974252;28;20061;-72
2022/07/14 05:12:02;;;;;;;18.15;6.65;;;13.00;99.90;;;;;;4973926;28;20059;-72
2022/07/14 05:14:31;;;;;;;19.17;7.28;;;13.00;99.90;;;;;;4950995;28;20059;-72
2022/07/14 05:16:57;;;;;;;14.65;6.55;;;13.10;99.90;;;;;;4946564;28;20586;-72
2022/07/14 05:19:23;;;;;;;14.05;6.95;;;13.10;99.90;;;;;;4969035;28;20126;-72
2022/07/14 05:21:48;;;;;;;13.75;7.45;;;13.10;99.90;;;;;;4968792;28;20100;-71
2022/07/14 05:24:14;;;;;;;16.25;7.05;;;13.10;99.90;;;;;;4965866;28;20404;-71
2022/07/14 05:26:40;;;;;;;20.15;8.02;;;13.20;99.90;;;;;;4967437;28;20054;-71
2022/07/14 05:29:06;;;;;;;15.85;8.38;;;13.30;99.90;;;;;;4952554;28;20046;-71
2022/07/14 05:31:33;;;;;;;16.67;8.07;;;13.30;99.90;;;;;;4969767;28;20043;-71
2022/07/14 05:33:58;;;;;;;9.55;6.38;;;13.40;99.90;;;;;;4973785;28;20093;-71
2022/07/14 05:36:24;;;;;;;15.93;7.00;;;13.40;99.90;;;;;;4943591;28;20050;-72
2022/07/14 05:38:51;;;;;;;16.60;7.22;;;13.50;99.90;;;;;;4959870;28;20471;-71
2022/07/14 05:41:19;;;;;;;12.27;7.13;;;13.50;99.90;;;;;;4971281;28;20057;-71
2022/07/14 05:43:46;;;;;;;12.60;6.53;;;13.60;99.90;;;;;;4967480;28;20039;-71
2022/07/14 05:46:13;;;;;;;19.85;7.10;;;13.70;99.90;;;;;;4968911;28;20069;-71
2022/07/14 05:48:39;;;;;;;21.17;6.97;;;13.80;99.90;;;;;;4939400;28;20058;-71
2022/07/14 05:51:14;;;;;;;16.25;6.50;;;13.90;99.90;;;;;;4966315;28;20084;-72
2022/07/14 05:53:41;;;;;;;11.10;5.65;;;14.10;99.90;;;;;;4960342;28;20054;-71
2022/07/14 05:56:07;;;;;;;19.15;6.55;;;14.20;99.90;;;;;;4948460;28;20122;-72
2022/07/14 05:58:35;;;;;;;14.63;5.57;;;14.30;99.90;;;;;;4941624;28;20049;-71
2022/07/14 06:01:01;;;;;;;9.80;4.13;;;14.50;99.90;;;;;;4968790;28;20451;-71
2022/07/14 06:03:27;;;;;;;7.35;4.63;;;14.60;99.90;;;;;;4962638;28;20044;-71
2022/07/14 06:05:52;;;;;;;7.18;4.15;;;14.80;99.90;;;;;;4949332;28;20496;-71
2022/07/14 06:08:19;;;;;;;11.15;4.28;;;14.90;99.90;;;;;;4968413;28;20105;-70
2022/07/14 06:10:45;;;;;;;11.40;3.63;;;15.00;99.90;;;;;;4991355;28;20077;-71
2022/07/14 06:13:11;;;;;;;11.13;4.55;;;15.20;99.90;;;;;;4990009;28;20042;-71
2022/07/14 06:15:36;;;;;;;9.32;3.70;;;15.30;99.90;;;;;;4989506;28;20479;-71
2022/07/14 06:18:03;;;;;;;5.78;3.30;;;15.30;99.90;;;;;;4973532;28;20042;-71
2022/07/14 06:20:29;;;;;;;7.03;3.28;;;15.40;99.90;;;;;;4974262;28;20042;-71
2022/07/14 06:22:54;;;;;;;17.85;4.22;;;15.50;99.90;;;;;;4991582;28;20108;-71
2022/07/14 06:25:21;;;;;;;10.77;3.17;;;15.60;99.90;;;;;;4974157;28;20043;-71
2022/07/14 06:27:46;;;;;;;8.32;3.30;;;15.70;99.90;;;;;;4979048;28;20042;-71
2022/07/14 06:30:12;;;;;;;13.85;3.70;;;15.80;99.90;;;;;;4973774;28;20069;-71
2022/07/14 06:32:42;;;;;;;6.55;3.42;;;15.90;99.90;;;;;;4987181;28;20046;-70
2022/07/14 06:35:09;;;;;;;9.93;3.45;;;15.90;99.90;;;;;;4968934;28;20081;-71
2022/07/14 06:37:35;;;;;;;9.10;2.93;;;16.10;99.90;;;;;;4987652;28;20045;-71
2022/07/14 06:40:06;;;;;;;6.60;2.95;;;16.20;99.90;;;;;;4989946;28;20034;-71
2022/07/14 06:42:34;;;;;;;9.77;3.03;;;16.40;99.90;;;;;;4981165;28;20512;-71
2022/07/14 06:45:00;;;;;;;6.65;2.85;;;16.50;99.90;;;;;;4989726;28;20045;-71
2022/07/14 06:47:26;;;;;;;14.10;2.45;;;16.80;99.90;;;;;;4972050;28;20050;-71
2022/07/14 06:49:51;;;;;;;6.05;2.55;;;17.10;99.90;;;;;;4988420;28;20054;-72
2022/07/14 06:52:17;;;;;;;7.03;2.80;;;17.30;99.90;;;;;;4979560;28;20508;-71
2022/07/14 06:54:43;;;;;;;8.65;2.63;;;17.60;99.90;;;;;;4990523;28;20073;-71
2022/07/14 06:57:08;;;;;;;7.88;2.45;;;17.80;99.90;;;;;;4990802;28;20050;-72
2022/07/14 06:59:34;;;;;;;10.20;2.53;;;18.10;99.90;;;;;;4972032;28;20153;-71
2022/07/14 07:02:00;;;;;;;8.63;2.88;;;18.30;99.90;;;;;;4981281;28;20046;-72
2022/07/14 07:04:26;;;;;;;11.52;2.38;;;18.20;99.90;;;;;;4973007;28;20173;-71
2022/07/14 07:06:51;;;;;;;3.25;2.10;;;18.30;99.90;;;;;;4965745;28;20129;-72
2022/07/14 07:09:19;;;;;;;6.78;2.55;;;18.40;99.90;;;;;;4961370;28;20118;-72
2022/07/14 07:11:49;;;;;;;5.22;2.08;;;18.60;99.90;;;;;;4949095;28;20142;-72
2022/07/14 07:14:16;;;;;;;10.55;3.00;;;18.70;99.90;;;;;;4971059;28;20089;-72
2022/07/14 07:16:47;;;;;;;13.50;2.63;;;18.90;99.90;;;;;;4971499;28;20081;-72
2022/07/14 07:19:13;;;;;;;3.95;1.83;;;19.10;99.90;;;;;;4965971;28;20035;-72
2022/07/14 07:21:38;;;;;;;5.43;1.73;;;19.50;99.90;;;;;;4965567;28;20082;-72
2022/07/14 07:24:04;;;;;;;4.70;1.92;;;19.50;99.90;;;;;;4960120;28;20451;-72
2022/07/14 07:26:35;;;;;;;12.88;2.22;;;19.50;99.90;;;;;;4969705;28;20045;-73
2022/07/14 07:29:01;;;;;;;5.18;2.38;;;19.50;99.90;;;;;;4964896;28;20047;-73
2022/07/14 07:31:28;;;;;;;9.48;2.15;;;19.80;99.90;;;;;;4970056;28;20125;-72
2022/07/14 07:33:54;;;;;;;5.87;2.13;;;19.70;99.90;;;;;;4954907;28;20046;-73
2022/07/14 07:36:20;;;;;;;3.83;1.90;;;19.50;99.90;;;;;;4957401;28;20047;-73
2022/07/14 07:38:46;;;;;;;8.00;2.25;;;19.50;99.90;;;;;;4953727;28;20046;-73
2022/07/14 07:41:12;;;;;;;15.73;2.75;;;19.50;99.90;;;;;;4952680;28;20047;-74
2022/07/14 07:43:38;;;;;;;7.80;3.17;;;19.50;99.90;;;;;;4973102;28;20114;-73
2022/07/14 07:46:05;;;;;;;6.85;2.15;;;19.40;99.90;;;;;;4951971;28;20050;-74
2022/07/14 07:48:31;;;;;;;4.22;1.90;;;19.40;99.90;;;;;;4969351;28;20940;-74
2022/07/14 07:51:03;;;;;;;7.22;1.95;;;19.30;99.90;;;;;;4966343;28;20047;-74
2022/07/14 07:53:28;;;;;;;4.07;2.10;;;19.40;99.90;;;;;;4953107;28;20930;-73
2022/07/14 07:55:54;;;;;;;9.45;2.05;;;19.40;99.90;;;;;;4949457;28;20047;-74
2022/07/14 07:58:20;;;;;;;6.20;1.77;;;19.50;99.90;;;;;;4947488;29;20543;-74
2022/07/14 08:00:47;;;;;;;7.65;2.30;;;19.60;99.90;;;;;;4968785;28;20128;-74
2022/07/14 08:03:13;;;;;;;8.52;1.85;;;19.50;99.90;;;;;;4954908;28;20055;-73
2022/07/14 08:05:40;;;;;;;4.95;1.75;;;19.50;99.90;;;;;;4973438;28;20723;-74
2022/07/14 08:08:10;;;;;;;4.63;1.70;;;19.50;99.90;;;;;;4964229;28;20665;-74
2022/07/14 08:10:37;;;;;;;7.13;1.92;;;19.70;99.90;;;;;;4965905;28;20039;-75
2022/07/14 08:13:03;;;;;;;8.98;2.28;;;20.20;99.90;;;;;;4968342;28;20755;-74
2022/07/14 08:15:29;;;;;;;8.15;2.22;;;20.50;99.90;;;;;;4966588;28;20050;-75
2022/07/14 08:17:55;;;;;;;9.73;2.05;;;20.70;99.90;;;;;;4967201;28;20396;-74
2022/07/14 08:20:20;;;;;;;13.05;1.67;;;20.90;99.90;;;;;;4965826;28;20047;-74
2022/07/14 08:22:46;;;;;;;7.15;1.85;;;20.80;99.90;;;;;;4964785;28;20031;-75
2022/07/14 08:25:12;;;;;;;5.10;1.58;;;20.60;99.90;;;;;;4968079;28;21017;-74
2022/07/14 08:27:37;;;;;;;9.75;2.47;;;20.50;99.90;;;;;;4965504;28;20058;-75
2022/07/14 08:30:05;;;;;;;8.10;1.92;;;20.50;99.90;;;;;;4960572;28;20055;-74
2022/07/14 08:32:35;;;;;;;10.55;2.50;;;20.70;99.90;;;;;;4961310;28;20404;-75
2022/07/14 08:35:02;;;;;;;2.85;1.10;;;20.90;99.90;;;;;;4965488;28;20845;-74
2022/07/14 08:37:28;;;;;;;3.35;1.58;;;21.10;99.90;;;;;;4968764;28;20153;-75
2022/07/14 08:39:54;;;;;;;2.80;1.42;;;21.40;99.90;;;;;;4968983;28;20085;-75
2022/07/14 08:42:21;;;;;;;3.60;1.35;;;21.60;99.90;;;;;;4968823;28;20050;-77
2022/07/14 08:44:47;;;;;;;17.63;2.63;;;22.00;99.90;;;;;;4964717;28;20039;-74
2022/07/14 08:47:13;;;;;;;5.32;1.23;;;22.30;99.90;;;;;;4966626;28;20058;-74
2022/07/14 08:49:39;;;;;;;4.57;1.58;;;22.50;95.40;;;;;;4968756;28;20085;-73
2022/07/14 08:52:05;;;;;;;4.85;1.67;;;22.50;95.60;;;;;;4969686;28;20067;-72
2022/07/14 08:54:33;;;;;;;4.10;1.10;;;22.80;93.40;;;;;;4966981;28;20051;-73
2022/07/14 08:56:59;;;;;;;4.38;1.67;;;23.00;90.50;;;;;;4965626;28;20054;-73
2022/07/14 08:59:25;;;;;;;2.63;1.67;;;23.10;93.30;;;;;;4974856;28;20078;-74
2022/07/14 09:01:51;;;;;;;5.72;1.67;;;23.10;92.30;;;;;;4971492;28;20050;-72
2022/07/14 09:04:17;;;;;;;7.57;1.20;;;22.90;90.90;;;;;;4972123;28;20046;-73
2022/07/14 09:06:52;;;;;;;14.20;2.53;;;22.90;90.50;;;;;;4971238;28;20042;-71
2022/07/14 09:09:24;;;;;;;7.82;1.75;;;22.80;91.00;;;;;;4968005;28;20086;-74
2022/07/14 09:12:08;;;;;;;3.83;1.48;;;23.00;91.80;;;;;;4949951;28;20083;-73
2022/07/14 09:17:27;;;;;;;10.18;1.60;;;22.80;78.10;;;;;;4969199;28;20389;-74
2022/07/14 09:20:07;;;;;;;3.92;1.20;;;22.70;85.50;;;;;;4967464;28;20126;-74
2022/07/14 09:22:37;;;;;;;4.22;1.65;;;22.60;82.60;;;;;;4966706;28;20185;-73
2022/07/14 09:25:06;;;;;;;4.97;1.48;;;22.60;82.00;;;;;;4967960;28;20944;-73
2022/07/14 09:27:32;;;;;;;3.00;1.67;;;22.50;82.40;;;;;;4950894;28;20504;-73
2022/07/14 09:29:58;;;;;;;4.72;1.83;;;22.50;83.00;;;;;;4968981;28;20420;-73
2022/07/14 09:32:55;;;;;;;2.90;1.55;;;22.60;82.30;;;;;;4968107;28;20047;-73
2022/07/14 09:35:37;;;;;;;2.50;1.55;;;22.70;81.40;;;;;;4966651;28;20062;-73
2022/07/14 09:38:19;;;;;;;9.43;1.75;;;22.70;81.30;;;;;;4978345;28;20079;-74
2022/07/14 09:40:49;;;;;;;4.50;1.20;;;22.60;76.20;;;;;;4964167;28;20050;-74
2022/07/14 09:43:15;;;;;;;7.82;1.95;;;22.30;81.20;;;;;;4967620;28;20054;-73
2022/07/14 09:45:46;;;;;;;6.63;1.50;;;22.20;84.20;;;;;;4965222;28;20087;-73
2022/07/14 09:48:14;;;;;;;3.30;1.45;;;22.10;85.60;;;;;;4959003;28;20097;-73
2022/07/14 09:50:42;;;;;;;;;;;22.20;85.40;;;;;;4968956;28;20051;-72
2022/07/14 09:53:28;;;;;;;4.93;1.83;;;22.20;89.30;;;;;;4967214;28;19926;-73
2022/07/14 09:56:04;;;;;;;1.55;1.38;;;22.40;91.10;;;;;;4965719;28;20063;-74
2022/07/14 09:58:44;;;;;;;4.28;1.55;;;22.60;89.80;;;;;;4959011;28;20306;-73
2022/07/14 10:01:19;;;;;;;2.38;1.40;;;22.70;87.10;;;;;;4958095;28;20460;-74
2022/07/14 10:03:50;;;;;;;5.93;2.08;;;22.80;86.60;;;;;;4965979;28;20051;-73
2022/07/14 10:06:17;;;;;;;7.65;1.70;;;22.90;86.60;;;;;;4962515;28;20519;-72
2022/07/14 10:08:48;;;;;;;2.60;1.45;;;22.80;87.30;;;;;;4986260;28;20081;-74
2022/07/14 10:11:14;;;;;;;6.82;1.77;;;22.70;88.40;;;;;;4966340;28;20054;-74
2022/07/14 10:13:40;;;;;;;5.57;1.70;;;22.70;84.40;;;;;;4968215;28;20050;-75
2022/07/14 10:16:06;;;;;;;4.97;1.98;;;22.50;85.20;;;;;;4986935;28;20049;-74
2022/07/14 10:18:33;;;;;;;5.35;1.98;;;22.40;84.80;;;;;;4983933;28;20181;-75
2022/07/14 10:21:00;;;;;;;7.32;2.03;;;22.40;87.50;;;;;;4969293;28;20073;-75
2022/07/14 10:23:28;;;;;;;2.55;1.70;;;22.30;87.10;;;;;;4969899;28;20442;-74
2022/07/14 10:25:56;;;;;;;6.28;1.45;;;22.30;86.80;;;;;;4983717;28;20054;-74
2022/07/14 10:28:22;;;;;;;6.95;1.92;;;22.20;84.90;;;;;;4970592;28;20050;-75
2022/07/14 10:31:14;;;;;;;5.75;2.15;;;22.20;85.00;;;;;;4969514;28;20046;-74
2022/07/14 10:33:58;;;;;;;8.25;1.80;;;21.90;82.20;;;;;;4966924;28;20054;-74
2022/07/14 10:36:36;;;;;;;1.58;1.20;;;22.00;88.50;;;;;;4953342;28;20050;-74
2022/07/14 10:39:28;;;;;;;2.80;1.40;;;22.10;81.50;;;;;;4964843;28;20042;-74
2022/07/14 10:42:17;;;;;;;5.43;1.85;;;22.20;86.40;;;;;;4983859;28;20042;-73
2022/07/14 10:44:47;;;;;;;4.55;1.38;;;22.10;88.30;;;;;;4969946;28;20054;-73
2022/07/14 10:47:17;;;;;;;1.88;1.40;;;22.20;88.40;;;;;;4970419;28;20399;-73
2022/07/14 10:50:05;;;;;;;8.88;1.60;;;22.40;90.50;;;;;;4989408;28;20092;-73
2022/07/14 10:52:35;;;;;;;3.58;1.55;;;22.40;84.00;;;;;;4990105;28;20046;-73
2022/07/14 10:55:14;;;;;;;6.25;1.50;;;22.50;88.40;;;;;;4989930;28;20038;-73
2022/07/14 10:58:00;;;;;;;2.30;1.50;;;22.60;90.30;;;;;;4959898;28;20054;-73
2022/07/14 11:00:43;;;;;;;3.70;1.70;;;22.50;86.10;;;;;;4990939;28;20412;-72
2022/07/14 11:03:38;;;;;;;9.77;2.60;;;22.50;84.20;;;;;;4961300;28;20511;-73
2022/07/14 11:06:08;;;;;;;4.97;1.48;;;22.40;82.50;;;;;;4979589;28;20512;-73
2022/07/14 11:08:39;;;;;;;3.90;1.75;;;22.50;88.90;;;;;;4983472;28;20398;-73
2022/07/14 11:11:32;;;;;;;5.20;1.92;;;22.60;84.00;;;;;;4984824;28;20046;-73
2022/07/14 11:14:01;;;;;;;2.30;1.38;;;22.50;80.50;;;;;;4969398;28;20061;-72
2022/07/14 11:16:49;;;;;;;5.40;1.88;;;22.60;88.80;;;;;;4988268;28;20057;-72
2022/07/14 11:19:36;;;;;;;3.20;1.50;;;22.50;90.60;;;;;;4979946;28;20073;-72
2022/07/14 11:22:13;;;;;;;3.72;1.30;;;22.30;81.10;;;;;;4989760;28;20043;-72
2022/07/14 11:24:53;;;;;;;;;;;22.40;87.30;;;;;;4986746;28;20050;-72
2022/07/14 11:27:27;;;;;;;2.20;1.23;;;22.30;86.00;;;;;;4988523;28;19921;-73
2022/07/14 11:29:56;;;;;;;6.22;2.05;;;22.40;89.10;;;;;;4990642;28;20407;-73
2022/07/14 11:32:34;;;;;;;13.27;1.75;;;22.40;90.50;;;;;;4990172;28;20061;-72
2022/07/14 11:38:00;;;;;;;6.55;1.98;;;22.30;86.90;;;;;;4990310;28;20126;-71
2022/07/14 11:40:45;;;;;;;2.70;1.48;;;22.50;88.70;;;;;;4987503;28;20493;-74
2022/07/14 11:43:29;;;;;;;5.93;1.42;;;22.50;90.00;;;;;;4977282;28;20049;-72
2022/07/14 11:45:56;;;;;;;5.45;1.92;;;22.60;83.90;;;;;;4986329;28;20054;-72
2022/07/14 11:48:28;;;;;;;6.82;2.40;;;22.50;84.20;;;;;;4980552;28;20053;-71
2022/07/14 11:51:06;;;;;;;5.43;1.90;;;22.60;85.90;;;;;;4989970;28;20117;-71
2022/07/14 11:53:33;;;;;;;155.27;14.98;;;22.70;85.60;;;;;;4988824;28;20050;-71
2022/07/14 11:56:00;;;;;;;6.50;2.17;;;22.80;90.10;;;;;;4987847;28;20042;-73
2022/07/14 11:58:28;;;;;;;7.97;1.80;;;22.80;86.10;;;;;;4987640;28;20042;-72
2022/07/14 12:01:00;;;;;;;6.28;1.70;;;22.50;84.60;;;;;;4988696;28;20659;-71
2022/07/14 12:03:26;;;;;;;2.17;1.33;;;22.50;86.20;;;;;;4978268;28;20144;-73
2022/07/14 12:05:54;;;;;;;2.33;1.33;;;22.40;86.20;;;;;;4983451;28;20042;-70
2022/07/14 12:08:24;;;;;;;2.90;1.50;;;22.40;85.30;;;;;;4989181;28;20062;-71
2022/07/14 12:10:51;;;;;;;1.77;1.40;;;22.40;88.40;;;;;;4972229;28;20495;-71
2022/07/14 12:13:18;;;;;;;1.95;1.42;;;22.40;90.40;;;;;;4983659;28;20046;-72
2022/07/14 12:15:44;;;;;;;1.65;1.55;;;22.40;91.50;;;;;;4988410;28;20053;-72
2022/07/14 12:18:11;;;;;;;6.88;1.77;;;22.40;90.40;;;;;;4972189;28;20054;-72
2022/07/14 12:20:42;;;;;;;4.20;1.90;;;22.40;89.70;;;;;;4989233;28;20042;-73
2022/07/14 12:23:09;;;;;;;5.72;1.85;;;22.30;90.30;;;;;;4968962;28;20045;-73
2022/07/14 12:25:37;;;;;;;6.13;1.67;;;22.30;88.90;;;;;;4984576;28;20062;-73
2022/07/14 12:28:05;;;;;;;3.70;1.77;;;22.50;92.80;;;;;;4988453;28;20057;-74
2022/07/14 12:30:43;;;;;;;5.65;1.67;;;22.70;93.10;;;;;;4988208;28;20058;-73
2022/07/14 12:33:15;;;;;;;4.03;1.58;;;22.90;92.40;;;;;;4987398;28;20042;-73
2022/07/14 12:35:43;;;;;;;8.95;1.88;;;22.90;86.70;;;;;;4969700;28;20061;-73
2022/07/14 12:38:11;;;;;;;1.80;1.60;;;23.10;86.90;;;;;;4988506;28;20518;-72
2022/07/14 12:40:37;;;;;;;;;;;23.20;86.20;;;;;;4969891;28;20073;-73
2022/07/14 12:43:03;;;;;;;4.78;1.92;;;23.20;77.20;;;;;;4981637;28;20024;-73
2022/07/14 12:45:30;;;;;;;10.32;2.08;;;22.90;81.00;;;;;;4971380;28;20054;-73
2022/07/14 12:48:01;;;;;;;3.97;1.55;;;22.80;81.90;;;;;;4987555;28;20529;-73
2022/07/14 12:50:28;;;;;;;13.10;2.20;;;22.70;81.10;;;;;;4969832;28;20503;-71
2022/07/14 12:52:57;;;;;;;3.35;1.85;;;22.60;81.00;;;;;;4987956;28;20049;-72
2022/07/14 12:55:34;;;;;;;5.05;1.73;;;22.60;83.80;;;;;;4986664;28;20046;-72
2022/07/14 12:58:07;;;;;;;3.40;2.10;;;22.60;81.50;;;;;;4984528;28;20049;-73
2022/07/14 13:00:34;;;;;;;5.07;1.63;;;22.50;81.80;;;;;;4987999;28;20073;-74
2022/07/14 13:03:18;;;;;;;4.60;2.20;;;22.30;82.70;;;;;;4988444;28;20069;-73